createdAt,value
2023-02-16T00:01:37.938Z,5.85
2023-02-16T00:04:29.444Z,6.75
2023-02-16T00:07:02.020Z,5.72
2023-02-16T00:09:46.888Z,5.70
2023-02-16T00:12:40.188Z,6.43
2023-02-16T00:15:20.825Z,5.70
2023-02-16T00:17:56.924Z,5.93
2023-02-16T00:20:32.249Z,6.05
2023-02-16T00:23:08.055Z,5.78
2023-02-16T00:25:40.986Z,6.00
2023-02-16T00:28:19.313Z,5.93
2023-02-16T00:30:52.039Z,5.15
2023-02-16T00:33:24.920Z,6.35
2023-02-16T00:35:57.506Z,5.85
2023-02-16T00:38:30.127Z,5.57
2023-02-16T00:41:03.464Z,5.53
2023-02-16T00:43:36.153Z,5.57
2023-02-16T00:46:09.639Z,6.07
2023-02-16T00:48:44.903Z,6.18
2023-02-16T00:51:25.792Z,6.22
2023-02-16T00:54:11.090Z,5.68
2023-02-16T00:56:56.684Z,6.03
2023-02-16T00:59:29.537Z,6.28
2023-02-16T01:02:02.106Z,5.55
2023-02-16T01:04:49.615Z,6.35
2023-02-16T01:07:41.542Z,6.05
2023-02-16T01:10:32.895Z,6.25
2023-02-16T01:13:05.969Z,6.20
2023-02-16T01:15:39.783Z,5.57
2023-02-16T01:18:18.797Z,5.85
2023-02-16T01:20:54.568Z,5.78
2023-02-16T01:23:30.194Z,6.50
2023-02-16T01:26:03.459Z,5.32
2023-02-16T01:28:36.654Z,6.13
2023-02-16T01:31:30.462Z,6.60
2023-02-16T01:34:03.099Z,6.20
2023-02-16T01:36:45.347Z,6.03
2023-02-16T01:39:20.850Z,5.53
2023-02-16T01:42:30.770Z,5.95
2023-02-16T01:45:20.280Z,6.10
2023-02-16T01:47:58.431Z,6.30
2023-02-16T01:50:56.234Z,5.82
2023-02-16T01:53:52.745Z,6.20
2023-02-16T01:56:50.020Z,5.75
2023-02-16T02:00:00.914Z,5.93
2023-02-16T02:03:19.918Z,6.38
2023-02-16T02:05:52.518Z,6.40
2023-02-16T02:08:41.937Z,6.50
2023-02-16T02:11:25.888Z,5.80
2023-02-16T02:14:09.334Z,6.20
2023-02-16T02:17:16.593Z,5.90
2023-02-16T02:20:01.596Z,5.93
2023-02-16T02:23:33.140Z,6.30
2023-02-16T02:26:42.837Z,6.32
2023-02-16T02:29:24.103Z,6.13
2023-02-16T02:32:05.602Z,6.28
2023-02-16T02:35:12.535Z,6.10
2023-02-16T02:38:17.602Z,6.57
2023-02-16T02:41:50.046Z,6.30
2023-02-16T02:44:27.417Z,6.43
2023-02-16T02:47:00.139Z,5.97
2023-02-16T02:49:32.844Z,6.10
2023-02-16T02:52:15.591Z,7.90
2023-02-16T02:55:08.266Z,6.38
2023-02-16T02:58:08.012Z,6.30
2023-02-16T03:00:47.805Z,6.13
2023-02-16T03:03:23.369Z,5.95
2023-02-16T03:06:24.045Z,5.93
2023-02-16T03:09:06.649Z,7.40
2023-02-16T03:12:07.104Z,6.28
2023-02-16T03:14:54.586Z,6.50
2023-02-16T03:17:55.404Z,6.25
2023-02-16T03:20:46.687Z,6.85
2023-02-16T03:23:37.836Z,6.03
2023-02-16T03:26:29.625Z,6.05
2023-02-16T03:29:38.134Z,6.30
2023-02-16T03:32:10.850Z,6.13
2023-02-16T03:34:49.873Z,6.57
2023-02-16T03:37:22.604Z,6.25
2023-02-16T03:40:28.244Z,6.10
2023-02-16T03:43:06.757Z,6.10
2023-02-16T03:46:04.410Z,6.40
2023-02-16T03:48:40.022Z,7.05
2023-02-16T03:51:12.601Z,7.43
2023-02-16T03:53:45.202Z,5.85
2023-02-16T03:56:18.591Z,6.70
2023-02-16T03:58:51.197Z,6.67
2023-02-16T04:01:26.143Z,6.60
2023-02-16T04:03:58.766Z,6.70
2023-02-16T04:06:31.461Z,6.15
2023-02-16T04:09:04.229Z,6.20
2023-02-16T04:11:55.566Z,5.70
2023-02-16T04:14:28.172Z,6.47
2023-02-16T04:17:04.035Z,6.57
2023-02-16T04:19:36.657Z,7.07
2023-02-16T04:22:09.206Z,6.63
2023-02-16T04:24:41.911Z,6.88
2023-02-16T04:27:14.632Z,6.32
2023-02-16T04:29:47.332Z,6.60
2023-02-16T04:32:19.976Z,8.45
2023-02-16T04:34:52.609Z,6.95
2023-02-16T04:37:25.381Z,6.10
2023-02-16T04:39:58.054Z,7.28
2023-02-16T04:42:30.701Z,6.72
2023-02-16T04:45:03.382Z,6.30
2023-02-16T04:47:36.090Z,6.60
2023-02-16T04:50:10.193Z,6.88
2023-02-16T04:52:42.744Z,6.93
2023-02-16T04:55:15.352Z,6.38
2023-02-16T04:57:47.994Z,7.05
2023-02-16T05:00:21.263Z,6.18
2023-02-16T05:02:53.889Z,6.47
2023-02-16T05:05:26.678Z,5.80
2023-02-16T05:07:59.307Z,6.03
2023-02-16T05:10:31.940Z,6.68
2023-02-16T05:13:23.154Z,6.55
2023-02-16T05:16:02.790Z,6.38
2023-02-16T05:18:35.418Z,6.93
2023-02-16T05:21:26.467Z,6.55
2023-02-16T05:24:05.676Z,6.28
2023-02-16T05:26:40.052Z,7.68
2023-02-16T05:29:12.641Z,6.40
2023-02-16T05:31:45.976Z,6.25
2023-02-16T05:34:18.692Z,6.10
2023-02-16T05:36:51.753Z,6.80
2023-02-16T05:39:24.473Z,6.00
2023-02-16T05:41:57.108Z,5.80
2023-02-16T05:44:29.823Z,6.15
2023-02-16T05:47:02.633Z,6.00
2023-02-16T05:49:37.804Z,5.75
2023-02-16T05:52:10.385Z,5.93
2023-02-16T05:54:42.962Z,5.32
2023-02-16T05:57:15.575Z,5.40
2023-02-16T05:59:48.177Z,6.20
2023-02-16T06:02:20.842Z,5.72
2023-02-16T06:04:53.434Z,6.30
2023-02-16T06:07:28.803Z,5.72
2023-02-16T06:10:10.509Z,6.40
2023-02-16T06:12:58.024Z,5.40
2023-02-16T06:15:30.626Z,6.10
2023-02-16T06:18:03.423Z,5.90
2023-02-16T06:20:36.058Z,6.28
2023-02-16T06:23:11.901Z,6.13
2023-02-16T06:25:49.626Z,6.00
2023-02-16T06:28:22.186Z,5.68
2023-02-16T06:30:54.731Z,5.88
2023-02-16T06:33:27.482Z,6.45
2023-02-16T06:36:00.044Z,5.97
2023-02-16T06:38:32.697Z,5.53
2023-02-16T06:41:06.294Z,5.00
2023-02-16T06:43:39.115Z,5.65
2023-02-16T06:46:11.704Z,6.22
2023-02-16T06:48:44.511Z,5.50
2023-02-16T06:51:18.391Z,5.60
2023-02-16T06:53:50.961Z,5.57
2023-02-16T06:56:24.284Z,5.13
2023-02-16T06:58:57.045Z,5.83
2023-02-16T07:01:30.147Z,5.63
2023-02-16T07:04:15.108Z,5.40
2023-02-16T07:06:50.898Z,5.30
2023-02-16T07:09:23.798Z,6.10
2023-02-16T07:11:56.451Z,5.40
2023-02-16T07:14:30.889Z,5.30
2023-02-16T07:17:18.593Z,5.53
2023-02-16T07:20:09.604Z,5.40
2023-02-16T07:22:54.585Z,5.22
2023-02-16T07:25:27.214Z,5.70
2023-02-16T07:28:08.653Z,5.15
2023-02-16T07:30:42.022Z,5.25
2023-02-16T07:33:15.952Z,5.20
2023-02-16T07:35:51.829Z,4.75
2023-02-16T07:38:24.387Z,7.38
2023-02-16T07:40:58.433Z,6.18
2023-02-16T07:43:31.086Z,5.97
2023-02-16T07:46:03.955Z,6.20
2023-02-16T07:48:36.675Z,5.43
2023-02-16T07:51:09.304Z,5.72
2023-02-16T07:53:44.555Z,5.70
2023-02-16T07:56:33.269Z,6.15
2023-02-16T07:59:17.037Z,5.28
2023-02-16T08:01:49.740Z,5.35
2023-02-16T08:04:22.490Z,5.63
2023-02-16T08:06:55.151Z,6.07
2023-02-16T08:09:27.781Z,6.05
2023-02-16T08:12:15.302Z,6.45
2023-02-16T08:14:53.595Z,5.18
2023-02-16T08:17:36.084Z,6.32
2023-02-16T08:20:09.784Z,5.78
2023-02-16T08:22:42.419Z,5.05
2023-02-16T08:25:16.026Z,5.28
2023-02-16T08:27:48.587Z,5.50
2023-02-16T08:30:25.035Z,5.38
2023-02-16T08:33:09.728Z,5.72
2023-02-16T08:35:54.614Z,5.93
2023-02-16T08:38:27.247Z,5.75
2023-02-16T08:40:59.829Z,5.22
2023-02-16T08:43:32.520Z,5.95
2023-02-16T08:46:26.387Z,5.75
2023-02-16T08:49:05.542Z,5.43
2023-02-16T08:51:52.687Z,5.90
2023-02-16T08:54:36.313Z,6.68
2023-02-16T08:57:23.950Z,5.23
2023-02-16T09:00:17.925Z,6.53
2023-02-16T09:02:51.201Z,5.07
2023-02-16T09:05:24.613Z,5.77
2023-02-16T09:07:58.601Z,5.60
2023-02-16T09:10:31.454Z,5.15
2023-02-16T09:13:16.270Z,4.80
2023-02-16T09:16:08.174Z,5.43
2023-02-16T09:18:47.288Z,5.35
2023-02-16T09:21:37.479Z,5.57
2023-02-16T09:24:16.665Z,5.60
2023-02-16T09:26:49.937Z,5.72
2023-02-16T09:29:23.483Z,6.63
2023-02-16T09:31:56.208Z,6.82
2023-02-16T09:34:34.961Z,5.38
2023-02-16T09:37:07.552Z,6.60
2023-02-16T09:39:52.489Z,5.13
2023-02-16T09:42:49.377Z,5.93
2023-02-16T09:46:05.838Z,5.97
2023-02-16T09:48:45.673Z,5.93
2023-02-16T09:51:34.300Z,6.57
2023-02-16T09:58:41.811Z,5.82
2023-02-16T10:01:58.908Z,5.20
2023-02-16T10:05:08.574Z,5.15
2023-02-16T10:08:03.435Z,5.25
2023-02-16T10:13:36.864Z,5.55
2023-02-16T10:16:22.932Z,5.90
2023-02-16T10:18:59.820Z,5.05
2023-02-16T10:24:28.064Z,5.32
2023-02-16T10:27:14.318Z,5.10
2023-02-16T10:29:46.912Z,5.40
2023-02-16T10:32:33.982Z,4.80
2023-02-16T10:35:20.584Z,4.85
2023-02-16T10:38:26.976Z,5.60
2023-02-16T10:41:19.877Z,4.57
2023-02-16T10:44:04.895Z,5.30
2023-02-16T10:46:52.008Z,5.25
2023-02-16T10:49:32.720Z,5.30
2023-02-16T10:52:26.019Z,4.80
2023-02-16T10:55:11.498Z,5.72
2023-02-16T10:58:00.650Z,6.00
2023-02-16T11:01:11.741Z,4.80
2023-02-16T11:03:49.360Z,5.35
2023-02-16T11:06:26.879Z,4.90
2023-02-16T11:09:02.899Z,6.32
2023-02-16T11:11:42.784Z,5.43
2023-02-16T11:14:26.869Z,5.03
2023-02-16T11:17:16.495Z,5.50
2023-02-16T11:19:57.316Z,5.80
2023-02-16T11:22:39.720Z,6.05
2023-02-16T11:25:18.164Z,5.28
2023-02-16T11:28:02.339Z,5.80
2023-02-16T11:30:39.888Z,5.00
2023-02-16T11:33:25.016Z,5.15
2023-02-16T11:35:57.630Z,5.10
2023-02-16T11:38:39.074Z,5.15
2023-02-16T11:41:12.836Z,5.30
2023-02-16T11:43:45.508Z,5.45
2023-02-16T11:46:21.728Z,5.00
2023-02-16T11:49:39.573Z,5.00
2023-02-16T11:52:29.269Z,6.25
2023-02-16T11:55:03.124Z,5.40
2023-02-16T11:57:37.435Z,5.03
2023-02-16T12:00:22.229Z,5.10
2023-02-16T12:03:50.629Z,5.63
2023-02-16T12:07:41.504Z,5.28
2023-02-16T12:10:42.939Z,5.70
2023-02-16T12:13:52.937Z,7.20
2023-02-16T12:17:07.852Z,4.70
2023-02-16T12:20:05.480Z,5.68
2023-02-16T12:22:49.386Z,4.80
2023-02-16T12:25:37.877Z,5.43
2023-02-16T12:28:25.866Z,5.15
2023-02-16T12:31:56.755Z,4.82
2023-02-16T12:34:57.076Z,5.25
2023-02-16T12:38:03.579Z,4.57
2023-02-16T12:41:12.279Z,4.45
2023-02-16T12:43:53.986Z,5.03
2023-02-16T12:46:43.317Z,4.93
2023-02-16T12:49:34.626Z,6.35
2023-02-16T12:52:24.027Z,5.10
2023-02-16T12:55:22.281Z,4.68
2023-02-16T12:58:08.578Z,4.80
2023-02-16T13:00:52.335Z,5.38
2023-02-16T13:03:39.309Z,4.95
2023-02-16T13:06:22.749Z,5.03
2023-02-16T13:09:50.171Z,4.68
2023-02-16T13:12:44.520Z,4.60
2023-02-16T13:15:27.090Z,4.60
2023-02-16T13:18:12.976Z,4.30
2023-02-16T13:20:59.295Z,4.65
2023-02-16T13:23:47.725Z,5.85
2023-02-16T13:26:57.436Z,6.10
2023-02-16T13:30:01.273Z,4.53
2023-02-16T13:33:24.764Z,4.70
2023-02-16T13:36:11.052Z,5.00
2023-02-16T13:39:01.982Z,4.15
2023-02-16T13:42:00.340Z,4.32
2023-02-16T13:44:54.065Z,5.57
2023-02-16T13:47:36.937Z,4.38
2023-02-16T13:50:32.848Z,5.80
2023-02-16T13:53:22.032Z,4.38
2023-02-16T13:56:36.213Z,3.90
2023-02-16T13:59:18.586Z,4.95
2023-02-16T14:01:56.000Z,4.25
2023-02-16T14:04:31.546Z,4.60
2023-02-16T14:07:05.072Z,4.53
2023-02-16T14:09:37.559Z,4.18
2023-02-16T14:12:14.276Z,4.72
2023-02-16T14:14:52.913Z,4.22
2023-02-16T14:21:23.789Z,4.47
2023-02-16T14:24:43.461Z,4.93
2023-02-16T14:27:46.321Z,4.55
2023-02-16T14:30:44.760Z,4.78
2023-02-16T14:34:12.496Z,3.72
2023-02-16T14:37:16.267Z,5.15
2023-02-16T14:40:07.365Z,4.05
2023-02-16T14:46:38.016Z,4.90
2023-02-16T14:50:18.825Z,4.25
2023-02-16T14:53:51.956Z,4.75
2023-02-16T14:56:54.680Z,3.92
2023-02-16T15:00:03.464Z,4.13
2023-02-16T15:03:23.387Z,4.95
2023-02-16T15:06:04.534Z,4.38
2023-02-16T15:08:48.983Z,4.82
2023-02-16T15:12:19.216Z,4.15
2023-02-16T15:15:01.575Z,4.18
2023-02-16T15:17:51.306Z,4.50
2023-02-16T15:20:36.983Z,4.18
2023-02-16T15:23:29.144Z,4.22
2023-02-16T15:26:22.023Z,4.07
2023-02-16T15:28:59.556Z,4.32
2023-02-16T15:34:40.373Z,4.15
2023-02-16T15:37:58.757Z,4.70
2023-02-16T15:40:56.310Z,4.20
2023-02-16T15:43:31.860Z,4.45
2023-02-16T15:46:44.452Z,4.97
2023-02-16T15:49:30.353Z,4.55
2023-02-16T15:52:09.370Z,4.90
2023-02-16T15:57:40.629Z,4.20
2023-02-16T16:00:25.008Z,4.65
2023-02-16T16:08:49.768Z,4.53
2023-02-16T16:11:23.349Z,4.07
2023-02-16T16:13:55.981Z,4.93
2023-02-16T16:16:29.420Z,5.00
2023-02-16T16:19:32.479Z,4.63
2023-02-16T16:22:42.924Z,6.15
2023-02-16T16:25:34.287Z,5.22
2023-02-16T16:28:32.305Z,5.70
2023-02-16T16:31:33.809Z,4.80
2023-02-16T16:34:39.945Z,6.45
2023-02-16T16:37:25.370Z,5.05
2023-02-16T16:40:23.068Z,4.82
2023-02-16T16:43:05.324Z,5.85
2023-02-16T16:45:44.874Z,8.07
2023-02-16T16:48:25.897Z,5.43
2023-02-16T16:51:13.950Z,5.00
2023-02-16T16:54:20.673Z,4.95
2023-02-16T16:56:53.609Z,5.57
2023-02-16T16:59:35.369Z,4.97
2023-02-16T17:02:23.355Z,3.97
2023-02-16T17:05:18.286Z,4.38
2023-02-16T17:08:00.275Z,5.82
2023-02-16T17:10:40.220Z,4.88
2023-02-16T17:13:27.883Z,4.13
2023-02-16T17:16:23.961Z,4.93
2023-02-16T17:18:56.565Z,6.18
2023-02-16T17:21:32.999Z,5.38
2023-02-16T17:24:15.730Z,4.65
2023-02-16T17:26:51.525Z,4.90
2023-02-16T17:29:30.371Z,4.53
2023-02-16T17:32:09.337Z,4.13
2023-02-16T17:34:51.119Z,4.10
2023-02-16T17:37:32.464Z,4.10
2023-02-16T17:40:27.672Z,3.80
2023-02-16T17:43:00.368Z,4.18
2023-02-16T17:45:32.933Z,3.78
2023-02-16T17:48:05.655Z,3.40
2023-02-16T17:50:41.442Z,4.15
2023-02-16T17:53:26.390Z,3.60
2023-02-16T17:56:01.823Z,4.65
2023-02-16T17:58:34.501Z,3.80
2023-02-16T18:01:17.004Z,3.85
2023-02-16T18:03:53.101Z,3.70
2023-02-16T18:06:35.095Z,4.72
2023-02-16T18:09:24.266Z,5.07
2023-02-16T18:11:59.724Z,3.85
2023-02-16T18:14:41.583Z,3.72
2023-02-16T18:17:14.307Z,3.78
2023-02-16T18:19:46.852Z,4.72
2023-02-16T18:22:20.445Z,3.47
2023-02-16T18:24:53.094Z,3.78
2023-02-16T18:27:27.952Z,3.97
2023-02-16T18:30:03.193Z,3.65
2023-02-16T18:32:38.871Z,3.83
2023-02-16T18:35:20.856Z,3.72
2023-02-16T18:38:02.672Z,3.78
2023-02-16T18:41:03.469Z,3.53
2023-02-16T18:43:51.457Z,5.40
2023-02-16T18:46:24.238Z,3.40
2023-02-16T18:49:02.423Z,3.88
2023-02-16T18:51:42.341Z,3.63
2023-02-16T18:54:24.187Z,4.13
2023-02-16T19:00:23.384Z,4.13
2023-02-16T19:02:56.978Z,3.83
2023-02-16T19:05:29.767Z,3.75
2023-02-16T19:11:47.315Z,3.33
2023-02-16T19:14:20.152Z,5.55
2023-02-16T19:16:52.808Z,3.80
2023-02-16T19:19:25.533Z,3.72
2023-02-16T19:22:03.607Z,3.88
2023-02-16T19:24:36.323Z,4.03
2023-02-16T19:27:11.971Z,4.05
2023-02-16T19:32:47.034Z,3.83
2023-02-16T19:35:19.762Z,4.43
2023-02-16T19:37:52.471Z,3.75
2023-02-16T19:40:31.710Z,4.53
2023-02-16T19:43:23.551Z,3.42
2023-02-16T19:49:03.032Z,3.50
2023-02-16T19:51:47.671Z,3.53
2023-02-16T19:54:26.470Z,4.05
2023-02-16T19:57:02.720Z,3.55
2023-02-16T19:59:40.008Z,3.83
2023-02-16T20:02:15.653Z,3.75
2023-02-16T20:05:47.958Z,6.00
2023-02-16T20:08:36.603Z,3.55
2023-02-16T20:11:09.391Z,3.67
2023-02-16T20:13:55.105Z,3.80
2023-02-16T20:16:33.336Z,3.92
2023-02-16T20:19:06.739Z,3.78
2023-02-16T20:24:39.616Z,4.70
2023-02-16T20:27:28.546Z,3.50
2023-02-16T20:30:03.807Z,4.68
2023-02-16T20:32:36.915Z,4.40
2023-02-16T20:35:13.356Z,3.90
2023-02-16T20:37:46.005Z,3.70
2023-02-16T20:40:47.101Z,4.00
2023-02-16T20:48:19.732Z,4.55
2023-02-16T20:50:29.327Z,3.90
2023-02-16T20:53:35.106Z,4.32
2023-02-16T20:56:30.622Z,4.57
2023-02-16T20:59:12.625Z,3.53
2023-02-16T21:01:53.031Z,3.97
2023-02-16T21:04:25.937Z,3.47
2023-02-16T21:06:58.569Z,3.75
2023-02-16T21:09:31.261Z,3.92
2023-02-16T21:12:19.244Z,4.72
2023-02-16T21:14:53.245Z,3.67
2023-02-16T21:31:20.605Z,4.68
2023-02-16T21:33:55.956Z,3.70
2023-02-16T21:43:07.649Z,3.50
2023-02-16T21:45:40.435Z,3.78
2023-02-16T21:51:50.879Z,3.40
2023-02-16T21:57:17.940Z,3.55
2023-02-16T21:59:51.992Z,4.15
2023-02-16T22:02:47.223Z,3.53
2023-02-16T22:05:21.018Z,3.80
2023-02-16T22:09:04.086Z,3.28
2023-02-16T22:11:37.533Z,3.38
2023-02-16T22:14:10.830Z,3.38
2023-02-16T22:16:51.027Z,3.65
2023-02-16T22:19:57.690Z,3.22
2023-02-16T22:22:30.486Z,3.67
2023-02-16T22:25:13.715Z,4.97
2023-02-16T22:27:58.100Z,3.17
2023-02-16T22:33:21.745Z,2.95
2023-02-16T22:35:54.419Z,3.70
2023-02-16T22:40:14.536Z,3.20
2023-02-16T22:42:26.665Z,3.35
2023-02-16T22:45:29.264Z,3.03
2023-02-16T22:48:02.001Z,2.67
2023-02-16T22:50:35.951Z,3.15
2023-02-16T22:53:20.235Z,3.00
2023-02-16T22:56:54.750Z,2.67
2023-02-16T22:59:27.661Z,2.95
2023-02-16T23:05:16.208Z,2.75
2023-02-16T23:07:51.835Z,3.97
2023-02-16T23:13:51.747Z,2.72
2023-02-16T23:17:10.946Z,3.00
2023-02-16T23:19:55.642Z,3.67
2023-02-16T23:22:41.419Z,2.63
2023-02-16T23:25:33.819Z,2.85
2023-02-16T23:28:16.512Z,2.72
2023-02-16T23:30:49.201Z,2.50
2023-02-16T23:33:22.057Z,2.10
2023-02-16T23:35:58.852Z,2.40
2023-02-16T23:38:38.054Z,2.65
2023-02-16T23:41:25.876Z,2.88
2023-02-16T23:44:08.753Z,2.42
2023-02-16T23:46:55.954Z,2.95
2023-02-16T23:49:40.670Z,2.60
2023-02-16T23:52:25.351Z,2.50
2023-02-16T23:54:57.863Z,2.65
2023-02-16T23:57:32.633Z,3.00
